createdAt,value
2022-11-24T00:00:18.112Z,96626.03
2022-11-24T00:02:44.452Z,96623.03
2022-11-24T00:05:10.797Z,96618.09
2022-11-24T00:07:37.106Z,96621.75
2022-11-24T00:10:03.405Z,96622.81
2022-11-24T00:12:29.641Z,96630.28
2022-11-24T00:14:55.880Z,96625.88
2022-11-24T00:17:22.138Z,96632.13
2022-11-24T00:19:48.391Z,96630.75
2022-11-24T00:22:14.645Z,96624.81
2022-11-24T00:24:40.912Z,96630.59
2022-11-24T00:27:07.164Z,96633.81
2022-11-24T00:29:33.408Z,96635.22
2022-11-24T00:31:59.652Z,96640.22
2022-11-24T00:34:25.913Z,96644.50
2022-11-24T00:36:52.186Z,96652.59
2022-11-24T00:39:18.502Z,96647.00
2022-11-24T00:41:44.739Z,96654.28
2022-11-24T00:44:11.002Z,96654.63
2022-11-24T00:46:37.331Z,96649.09
2022-11-24T00:49:03.731Z,96643.69
2022-11-24T00:51:29.995Z,96659.06
2022-11-24T00:53:56.230Z,96660.25
2022-11-24T00:56:22.489Z,96668.00
2022-11-24T00:58:48.744Z,96663.00
2022-11-24T01:01:15.059Z,96664.06
2022-11-24T01:03:41.398Z,96661.47
2022-11-24T01:06:07.646Z,96657.34
2022-11-24T01:08:33.897Z,96664.75
2022-11-24T01:11:00.145Z,96668.34
2022-11-24T01:13:26.437Z,96661.63
2022-11-24T01:15:52.789Z,96669.97
2022-11-24T01:18:19.091Z,96673.81
2022-11-24T01:20:45.441Z,96677.50
2022-11-24T01:23:11.706Z,96675.66
2022-11-24T01:25:37.956Z,96678.09
2022-11-24T01:28:04.234Z,96685.72
2022-11-24T01:30:30.555Z,96685.72
2022-11-24T01:32:56.883Z,96683.75
2022-11-24T01:35:23.138Z,96686.88
2022-11-24T01:37:49.386Z,96687.09
2022-11-24T01:40:15.633Z,96686.28
2022-11-24T01:42:41.882Z,96689.63
2022-11-24T01:45:08.122Z,96693.56
2022-11-24T01:47:34.358Z,96692.34
2022-11-24T01:50:00.765Z,96702.28
2022-11-24T01:52:27.035Z,96701.25
2022-11-24T01:54:53.299Z,96708.19
2022-11-24T01:57:19.592Z,96705.19
2022-11-24T01:59:45.860Z,96710.94
2022-11-24T02:02:12.135Z,96703.81
2022-11-24T02:04:38.430Z,96701.16
2022-11-24T02:07:04.702Z,96713.34
2022-11-24T02:09:30.937Z,96708.56
2022-11-24T02:11:57.185Z,96704.78
2022-11-24T02:14:23.448Z,96719.63
2022-11-24T02:16:49.682Z,96723.94
2022-11-24T02:19:15.931Z,96707.94
2022-11-24T02:21:42.192Z,96708.28
2022-11-24T02:24:08.431Z,96707.03
2022-11-24T02:26:34.667Z,96698.88
2022-11-24T02:29:00.941Z,96701.88
2022-11-24T02:31:27.241Z,96702.94
2022-11-24T02:33:53.525Z,96700.50
2022-11-24T02:36:19.818Z,96712.69
2022-11-24T02:38:46.096Z,96711.53
2022-11-24T02:41:12.357Z,96718.03
2022-11-24T02:43:38.620Z,96713.84
2022-11-24T02:46:04.932Z,96714.38
2022-11-24T02:48:31.250Z,96710.13
2022-11-24T02:50:57.505Z,96727.19
2022-11-24T02:53:23.766Z,96724.19
2022-11-24T02:55:50.022Z,96728.81
2022-11-24T02:58:16.277Z,96731.03
2022-11-24T03:00:42.513Z,96737.75
2022-11-24T03:03:08.898Z,96730.78
2022-11-24T03:05:35.182Z,96738.09
2022-11-24T03:08:01.418Z,96726.28
2022-11-24T03:10:27.685Z,96731.72
2022-11-24T03:12:53.938Z,96732.53
2022-11-24T03:15:20.201Z,96736.00
2022-11-24T03:17:46.457Z,96733.00
2022-11-24T03:20:12.721Z,96718.75
2022-11-24T03:22:39.003Z,96718.53
2022-11-24T03:25:05.245Z,96722.91
2022-11-24T03:27:31.499Z,96719.88
2022-11-24T03:29:57.777Z,96723.13
2022-11-24T03:32:24.031Z,96730.63
2022-11-24T03:34:50.270Z,96738.63
2022-11-24T03:37:16.512Z,96733.69
2022-11-24T03:39:42.768Z,96745.75
2022-11-24T03:42:09.054Z,96739.47
2022-11-24T03:44:35.505Z,96740.41
2022-11-24T03:47:01.905Z,96749.47
2022-11-24T03:49:28.149Z,96755.13
2022-11-24T03:51:54.394Z,96742.38
2022-11-24T03:54:20.660Z,96741.34
2022-11-24T03:56:47.026Z,96747.59
2022-11-24T03:59:13.288Z,96751.66
2022-11-24T04:01:39.629Z,96749.78
2022-11-24T04:04:05.895Z,96755.94
2022-11-24T04:06:32.124Z,96764.03
2022-11-24T04:08:58.358Z,96766.81
2022-11-24T04:11:24.602Z,96779.44
2022-11-24T04:13:50.856Z,96763.22
2022-11-24T04:16:17.166Z,96771.22
2022-11-24T04:18:43.432Z,96779.31
2022-11-24T04:21:09.665Z,96788.47
2022-11-24T04:23:35.925Z,96778.06
2022-11-24T04:26:02.163Z,96781.06
2022-11-24T04:28:28.433Z,96780.03
2022-11-24T04:30:54.719Z,96766.00
2022-11-24T04:33:20.985Z,96769.94
2022-11-24T04:35:47.239Z,96772.38
2022-11-24T04:38:13.498Z,96779.91
2022-11-24T04:40:59.710Z,96786.28
2022-11-24T04:43:25.975Z,96789.19
2022-11-24T04:45:52.228Z,96791.84
2022-11-24T04:48:18.501Z,96793.22
2022-11-24T04:50:44.749Z,96808.19
2022-11-24T04:53:10.989Z,96801.69
2022-11-24T04:55:37.221Z,96789.06
2022-11-24T04:58:03.463Z,96787.66
2022-11-24T05:00:29.718Z,96777.72
2022-11-24T05:02:55.985Z,96764.16
2022-11-24T05:05:22.236Z,96761.25
2022-11-24T05:07:48.529Z,96768.53
2022-11-24T05:10:14.845Z,96779.09
2022-11-24T05:12:41.098Z,96784.31
2022-11-24T05:15:07.367Z,96802.50
2022-11-24T05:17:33.634Z,96808.53
2022-11-24T05:19:59.874Z,96806.09
2022-11-24T05:22:26.130Z,96794.28
2022-11-24T05:24:52.389Z,96795.44
2022-11-24T05:27:18.667Z,96804.13
2022-11-24T05:29:44.901Z,96797.50
2022-11-24T05:32:11.145Z,96804.59
2022-11-24T05:34:37.414Z,96794.84
2022-11-24T05:37:03.669Z,96795.66
2022-11-24T05:39:29.928Z,96805.63
2022-11-24T05:41:56.200Z,96810.03
2022-11-24T05:44:22.455Z,96817.22
2022-11-24T05:46:48.796Z,96813.16
2022-11-24T05:49:15.121Z,96817.56
2022-11-24T05:51:41.376Z,96818.38
2022-11-24T05:54:07.643Z,96813.38
2022-11-24T05:56:33.914Z,96809.44
2022-11-24T05:59:02.196Z,96810.50
2022-11-24T06:01:30.459Z,96803.44
2022-11-24T06:03:56.749Z,96805.28
2022-11-24T06:06:22.993Z,96809.13
2022-11-24T06:08:49.249Z,96815.94
2022-11-24T06:11:15.518Z,96820.69
2022-11-24T06:13:41.837Z,96822.06
2022-11-24T06:16:08.257Z,96817.31
2022-11-24T06:18:34.523Z,96818.63
2022-11-24T06:21:10.641Z,96819.66
2022-11-24T06:23:37.972Z,96824.06
2022-11-24T06:26:04.228Z,96829.03
2022-11-24T06:28:30.496Z,96816.28
2022-11-24T06:30:56.758Z,96811.91
2022-11-24T06:33:23.043Z,96814.66
2022-11-24T06:35:49.314Z,96824.63
2022-11-24T06:38:18.911Z,96824.63
2022-11-24T06:40:47.712Z,96816.28
2022-11-24T06:43:13.980Z,96810.25
2022-11-24T06:45:40.323Z,96821.56
2022-11-24T06:48:06.667Z,96824.28
2022-11-24T06:50:33.850Z,96823.25
2022-11-24T06:53:00.205Z,96826.50
2022-11-24T06:55:26.446Z,96825.13
2022-11-24T06:57:52.713Z,96828.22
2022-11-24T07:00:18.969Z,96840.63
2022-11-24T07:02:46.219Z,96834.00
2022-11-24T07:05:12.643Z,96827.75
2022-11-24T07:07:39.026Z,96829.38
2022-11-24T07:10:05.356Z,96838.66
2022-11-24T07:12:31.641Z,96841.22
2022-11-24T07:14:57.930Z,96836.00
2022-11-24T07:17:24.193Z,96845.00
2022-11-24T07:19:50.437Z,96858.31
2022-11-24T07:22:16.718Z,96875.63
2022-11-24T07:24:42.989Z,96874.81
2022-11-24T07:27:09.226Z,96863.91
2022-11-24T07:29:35.472Z,96870.94
2022-11-24T07:32:05.480Z,96873.25
2022-11-24T07:34:32.559Z,96867.22
2022-11-24T07:36:59.094Z,96873.50
2022-11-24T07:39:25.353Z,96879.28
2022-11-24T07:41:51.708Z,96878.13
2022-11-24T07:44:17.971Z,96873.94
2022-11-24T07:46:44.222Z,96871.03
2022-11-24T07:49:10.508Z,96868.25
2022-11-24T07:51:36.763Z,96869.53
2022-11-24T07:54:03.035Z,96876.50
2022-11-24T07:56:29.273Z,96867.69
2022-11-24T07:58:55.517Z,96869.06
2022-11-24T08:01:21.891Z,96868.03
2022-11-24T08:03:48.282Z,96869.19
2022-11-24T08:06:38.730Z,96875.22
2022-11-24T08:09:00.780Z,96877.31
2022-11-24T08:11:27.068Z,96861.19
2022-11-24T08:13:53.335Z,96862.06
2022-11-24T08:16:19.663Z,96874.53
2022-11-24T08:18:45.985Z,96865.72
2022-11-24T08:21:12.222Z,96877.19
2022-11-24T08:23:38.479Z,96882.66
2022-11-24T08:26:04.721Z,96890.75
2022-11-24T08:28:30.973Z,96883.44
2022-11-24T08:30:57.220Z,96879.06
2022-11-24T08:33:23.471Z,96882.63
2022-11-24T08:35:49.711Z,96887.25
2022-11-24T08:38:15.962Z,96891.06
2022-11-24T08:40:42.239Z,96888.97
2022-11-24T08:43:08.481Z,96894.44
2022-11-24T08:45:41.035Z,96895.09
2022-11-24T08:48:07.749Z,96915.88
2022-11-24T08:53:44.577Z,96912.53
2022-11-24T08:56:10.832Z,96911.03
2022-11-24T08:58:37.149Z,96912.53
2022-11-24T09:01:03.477Z,96913.00
2022-11-24T09:03:29.798Z,96912.06
2022-11-24T09:05:56.045Z,96924.25
2022-11-24T09:08:22.283Z,96921.56
2022-11-24T09:10:48.546Z,96923.41
2022-11-24T09:13:14.874Z,96921.53
2022-11-24T09:15:41.118Z,96926.88
2022-11-24T09:18:07.364Z,96924.41
2022-11-24T09:20:33.606Z,96931.34
2022-11-24T09:22:59.857Z,96931.81
2022-11-24T09:25:26.114Z,96933.59
2022-11-24T09:27:52.382Z,96930.47
2022-11-24T09:30:18.668Z,96930.56
2022-11-24T09:32:44.929Z,96932.53
2022-11-24T09:35:11.176Z,96936.81
2022-11-24T09:37:37.446Z,96935.03
2022-11-24T09:40:03.721Z,96940.25
2022-11-24T09:42:29.953Z,96944.41
2022-11-24T09:44:56.215Z,96947.03
2022-11-24T09:47:22.472Z,96941.34
2022-11-24T09:49:51.402Z,96937.88
2022-11-24T09:52:18.038Z,96931.91
2022-11-24T09:54:44.305Z,96942.53
2022-11-24T09:57:10.575Z,96945.13
2022-11-24T09:59:37.113Z,96954.28
2022-11-24T10:02:03.589Z,96942.59
2022-11-24T10:04:30.000Z,96948.84
2022-11-24T10:06:56.295Z,96947.13
2022-11-24T10:09:22.552Z,96939.09
2022-11-24T10:11:48.841Z,96936.28
2022-11-24T10:14:15.101Z,96941.00
2022-11-24T10:16:41.393Z,96931.13
2022-11-24T10:19:07.644Z,96936.94
2022-11-24T10:21:33.882Z,96926.72
2022-11-24T10:24:00.117Z,96930.44
2022-11-24T10:26:26.359Z,96931.28
2022-11-24T10:28:52.605Z,96932.34
2022-11-24T10:31:18.981Z,96935.72
2022-11-24T10:33:45.318Z,96940.97
2022-11-24T10:36:11.560Z,96944.44
2022-11-24T10:38:37.818Z,96944.44
2022-11-24T10:41:04.089Z,96945.44
2022-11-24T10:43:30.358Z,96934.91
2022-11-24T10:45:56.887Z,96938.16
2022-11-24T10:48:23.218Z,96929.00
2022-11-24T10:50:49.474Z,96935.09
2022-11-24T10:53:15.762Z,96936.47
2022-11-24T10:55:42.035Z,96946.28
2022-11-24T10:58:08.362Z,96955.34
2022-11-24T11:00:34.612Z,96946.34
2022-11-24T11:03:00.871Z,96946.56
2022-11-24T11:05:27.160Z,96943.00
2022-11-24T11:07:53.449Z,96944.13
2022-11-24T11:10:19.732Z,96950.78
2022-11-24T11:12:46.066Z,96951.53
2022-11-24T11:15:12.388Z,96938.81
2022-11-24T11:17:38.647Z,96941.31
2022-11-24T11:20:05.127Z,96948.69
2022-11-24T11:22:31.609Z,96943.81
2022-11-24T11:24:57.864Z,96947.47
2022-11-24T11:27:24.142Z,96946.41
2022-11-24T11:35:22.902Z,96936.13
2022-11-24T11:37:49.162Z,96932.41
2022-11-24T11:40:15.420Z,96929.00
2022-11-24T11:45:28.091Z,96925.81
2022-11-24T11:47:54.417Z,96927.13
2022-11-24T11:50:20.711Z,96930.34
2022-11-24T11:52:46.974Z,96932.78
2022-11-24T11:55:13.225Z,96930.03
2022-11-24T11:57:39.485Z,96929.38
2022-11-24T12:00:05.733Z,96929.88
2022-11-24T12:02:32.084Z,96923.84
2022-11-24T12:04:58.452Z,96925.41
2022-11-24T12:07:24.776Z,96919.88
2022-11-24T12:09:51.082Z,96926.25
2022-11-24T12:12:17.328Z,96922.25
2022-11-24T12:14:43.593Z,96913.38
2022-11-24T12:17:09.856Z,96924.53
2022-11-24T12:19:36.442Z,96907.41
2022-11-24T12:22:02.868Z,96914.75
2022-11-24T12:24:29.178Z,96910.97
2022-11-24T12:26:55.473Z,96911.03
2022-11-24T12:29:21.741Z,96908.47
2022-11-24T12:31:48.116Z,96902.13
2022-11-24T12:34:14.442Z,96898.56
2022-11-24T12:36:40.693Z,96901.63
2022-11-24T12:39:06.937Z,96888.28
2022-11-24T12:41:41.616Z,96891.00
2022-11-24T12:44:08.822Z,96884.69
2022-11-24T12:46:35.094Z,96881.63
2022-11-24T12:49:01.378Z,96870.75
2022-11-24T12:51:27.644Z,96871.00
2022-11-24T12:53:53.923Z,96858.66
2022-11-24T12:56:20.194Z,96850.13
2022-11-24T12:58:46.445Z,96846.97
2022-11-24T13:01:16.409Z,96846.50
2022-11-24T13:03:43.245Z,96840.91
2022-11-24T13:06:09.521Z,96829.72
2022-11-24T13:08:35.788Z,96830.88
2022-11-24T13:11:02.033Z,96824.22
2022-11-24T13:13:28.330Z,96820.88
2022-11-24T13:16:20.656Z,96823.56
2022-11-24T13:18:40.968Z,96818.88
2022-11-24T13:21:07.251Z,96819.16
2022-11-24T13:23:33.517Z,96820.25
2022-11-24T13:25:59.872Z,96815.44
2022-11-24T13:28:53.900Z,96806.88
2022-11-24T13:31:12.415Z,96803.41
2022-11-24T13:33:38.694Z,96803.69
2022-11-24T13:36:04.968Z,96796.44
2022-11-24T13:38:31.230Z,96786.25
2022-11-24T13:41:13.448Z,96793.25
2022-11-24T13:43:43.684Z,96786.53
2022-11-24T13:46:09.991Z,96786.53
2022-11-24T13:48:36.311Z,96783.31
2022-11-24T13:51:03.529Z,96774.75
2022-11-24T13:53:29.769Z,96766.91
2022-11-24T13:55:56.014Z,96774.97
2022-11-24T13:58:22.355Z,96770.19
2022-11-24T14:00:48.589Z,96766.69
2022-11-24T14:03:14.878Z,96764.00
2022-11-24T14:05:41.215Z,96763.69
2022-11-24T14:08:07.466Z,96757.25
2022-11-24T14:10:33.725Z,96758.31
2022-11-24T14:13:00.005Z,96756.16
2022-11-24T14:15:26.270Z,96748.91
2022-11-24T14:17:52.517Z,96737.88
2022-11-24T14:20:18.822Z,96738.41
2022-11-24T14:22:45.071Z,96742.97
2022-11-24T14:25:11.338Z,96749.13
2022-11-24T14:27:37.593Z,96741.59
2022-11-24T14:30:03.954Z,96744.53
2022-11-24T14:32:30.241Z,96729.47
2022-11-24T14:34:56.630Z,96723.00
2022-11-24T14:37:22.933Z,96721.38
2022-11-24T14:39:49.197Z,96723.50
2022-11-24T14:42:15.450Z,96726.44
2022-11-24T14:44:41.694Z,96724.00
2022-11-24T14:47:08.001Z,96720.22
2022-11-24T14:49:34.333Z,96712.41
2022-11-24T14:52:00.570Z,96713.44
2022-11-24T14:54:26.857Z,96711.00
2022-11-24T14:56:53.104Z,96719.03
2022-11-24T14:59:19.346Z,96716.06
2022-11-24T15:01:45.619Z,96712.03
2022-11-24T15:04:17.885Z,96708.22
2022-11-24T15:06:53.156Z,96704.16
2022-11-24T15:09:19.418Z,96703.31
2022-11-24T15:11:45.680Z,96711.38
2022-11-24T15:14:11.930Z,96708.69
2022-11-24T15:16:38.257Z,96712.94
2022-11-24T15:19:04.706Z,96718.56
2022-11-24T15:21:30.972Z,96729.03
2022-11-24T15:23:57.229Z,96736.22
2022-11-24T15:26:29.019Z,96745.59
2022-11-24T15:28:57.669Z,96744.50
2022-11-24T15:31:23.996Z,96760.03
2022-11-24T15:33:50.313Z,96755.47
2022-11-24T15:36:16.623Z,96750.88
2022-11-24T15:38:42.897Z,96748.72
2022-11-24T15:41:09.160Z,96749.72
2022-11-24T15:43:35.463Z,96757.19
2022-11-24T15:46:01.720Z,96759.31
2022-11-24T15:48:27.976Z,96756.03
2022-11-24T15:50:54.228Z,96755.44
2022-11-24T15:53:20.489Z,96760.25
2022-11-24T15:55:46.733Z,96759.13
2022-11-24T15:58:12.971Z,96752.16
2022-11-24T16:00:39.402Z,96758.28
2022-11-24T16:03:38.223Z,96759.59
2022-11-24T16:05:52.020Z,96769.75
2022-11-24T16:08:18.273Z,96759.50
2022-11-24T16:10:44.546Z,96754.66
2022-11-24T16:13:10.841Z,96768.59
2022-11-24T16:15:37.109Z,96764.88
2022-11-24T16:18:03.395Z,96769.91
2022-11-24T16:20:29.656Z,96771.22
2022-11-24T16:22:55.949Z,96764.75
2022-11-24T16:25:22.212Z,96768.50
2022-11-24T16:27:48.521Z,96761.78
2022-11-24T16:30:14.827Z,96759.91
2022-11-24T16:32:41.075Z,96767.94
2022-11-24T16:35:07.413Z,96764.97
2022-11-24T16:37:33.663Z,96760.63
2022-11-24T16:39:59.928Z,96758.19
2022-11-24T16:42:26.192Z,96768.59
2022-11-24T16:44:52.437Z,96773.13
2022-11-24T16:47:18.700Z,96775.25
2022-11-24T16:49:44.970Z,96778.19
2022-11-24T16:52:12.162Z,96780.53
2022-11-24T16:54:38.437Z,96768.22
2022-11-24T16:57:04.714Z,96770.34
2022-11-24T16:59:30.987Z,96763.88
2022-11-24T17:01:57.341Z,96769.16
2022-11-24T17:04:23.642Z,96761.94
2022-11-24T17:06:49.948Z,96758.97
2022-11-24T17:09:16.296Z,96759.47
2022-11-24T17:11:42.552Z,96756.22
2022-11-24T17:14:08.807Z,96751.38
2022-11-24T17:16:35.290Z,96753.75
2022-11-24T17:19:01.705Z,96758.28
2022-11-24T17:21:27.961Z,96754.00
2022-11-24T17:23:54.212Z,96746.22
2022-11-24T17:26:20.458Z,96748.03
2022-11-24T17:28:46.698Z,96734.59
2022-11-24T17:31:12.991Z,96732.41
2022-11-24T17:33:39.285Z,96735.03
2022-11-24T17:36:05.559Z,96731.56
2022-11-24T17:38:32.005Z,96743.00
2022-11-24T17:40:58.275Z,96748.03
2022-11-24T17:43:24.531Z,96755.72
2022-11-24T17:45:50.867Z,96754.91
2022-11-24T17:48:17.143Z,96743.13
2022-11-24T17:50:43.420Z,96740.69
2022-11-24T17:53:09.850Z,96742.00
2022-11-24T17:55:36.121Z,96747.84
2022-11-24T17:58:02.360Z,96751.56
2022-11-24T18:00:28.640Z,96754.75
2022-11-24T18:02:54.917Z,96762.44
2022-11-24T18:05:21.179Z,96760.81
2022-11-24T18:07:47.563Z,96747.63
2022-11-24T18:10:13.859Z,96766.09
2022-11-24T18:12:40.127Z,96774.59
2022-11-24T18:15:06.441Z,96781.47
2022-11-24T18:17:32.690Z,96779.88
2022-11-24T18:19:59.120Z,96776.06
2022-11-24T18:22:49.973Z,96774.09
2022-11-24T18:25:11.657Z,96773.53
2022-11-24T18:27:37.995Z,96773.44
2022-11-24T18:30:04.263Z,96772.63
2022-11-24T18:32:30.515Z,96773.94
2022-11-24T18:34:56.801Z,96780.56
2022-11-24T18:37:23.067Z,96784.53
2022-11-24T18:39:49.334Z,96779.13
2022-11-24T18:42:15.625Z,96769.25
2022-11-24T18:44:41.960Z,96769.97
2022-11-24T18:47:08.227Z,96772.31
2022-11-24T18:49:34.478Z,96764.31
2022-11-24T18:52:00.937Z,96768.50
2022-11-24T18:54:27.212Z,96774.56
2022-11-24T18:56:53.469Z,96769.72
2022-11-24T18:59:19.741Z,96766.00
2022-11-24T19:01:46.051Z,96757.75
2022-11-24T19:04:12.345Z,96745.44
2022-11-24T19:06:38.695Z,96748.59
2022-11-24T19:09:05.104Z,96744.00
2022-11-24T19:11:31.403Z,96733.56
2022-11-24T19:13:57.645Z,96736.47
2022-11-24T19:16:23.950Z,96736.94
2022-11-24T19:18:53.731Z,96738.56
2022-11-24T19:21:20.677Z,96744.16
2022-11-24T19:23:46.914Z,96758.88
2022-11-24T19:26:13.151Z,96756.19
2022-11-24T19:28:39.501Z,96753.53
2022-11-24T19:31:05.784Z,96761.44
2022-11-24T19:33:32.053Z,96766.22
2022-11-24T19:35:58.304Z,96761.13
2022-11-24T19:38:29.745Z,96765.31
2022-11-24T19:40:56.378Z,96767.81
2022-11-24T19:43:22.725Z,96757.63
2022-11-24T19:45:49.046Z,96747.75
2022-11-24T19:48:15.314Z,96756.56
2022-11-24T19:50:41.595Z,96742.66
2022-11-24T19:53:07.839Z,96737.31
2022-11-24T19:55:34.118Z,96740.94
2022-11-24T19:58:00.441Z,96742.47
2022-11-24T20:00:30.656Z,96749.09
2022-11-24T20:02:58.375Z,96746.66
2022-11-24T20:05:24.665Z,96748.66
2022-11-24T20:07:50.989Z,96747.16
2022-11-24T20:10:17.305Z,96750.28
2022-11-24T20:12:43.571Z,96748.34
2022-11-24T20:15:09.829Z,96743.56
2022-11-24T20:17:36.091Z,96745.44
2022-11-24T20:20:02.349Z,96747.28
2022-11-24T20:22:28.662Z,96752.06
2022-11-24T20:24:54.914Z,96748.81
2022-11-24T20:27:21.240Z,96755.66
2022-11-24T20:29:47.485Z,96758.47
2022-11-24T20:32:13.745Z,96751.28
2022-11-24T20:34:40.024Z,96753.16
2022-11-24T20:37:06.275Z,96759.28
2022-11-24T20:39:32.517Z,96769.16
2022-11-24T20:41:58.761Z,96772.03
2022-11-24T20:44:25.093Z,96779.94
2022-11-24T20:46:51.345Z,96777.50
2022-11-24T20:49:17.582Z,96776.38
2022-11-24T20:51:43.863Z,96768.84
2022-11-24T20:54:10.164Z,96766.66
2022-11-24T20:56:36.404Z,96770.94
2022-11-24T20:59:02.676Z,96758.09
2022-11-24T21:01:29.115Z,96756.97
2022-11-24T21:03:55.412Z,96764.63
2022-11-24T21:06:21.684Z,96769.94
2022-11-24T21:08:48.020Z,96771.47
2022-11-24T21:11:14.256Z,96777.34
2022-11-24T21:13:40.491Z,96786.88
2022-11-24T21:16:06.794Z,96788.63
2022-11-24T21:18:33.097Z,96782.00
2022-11-24T21:20:59.350Z,96780.38
2022-11-24T21:23:25.603Z,96786.16
2022-11-24T21:25:51.856Z,96777.59
2022-11-24T21:28:18.149Z,96769.00
2022-11-24T21:30:44.419Z,96780.25
2022-11-24T21:33:10.669Z,96791.94
2022-11-24T21:35:36.905Z,96794.84
2022-11-24T21:38:03.258Z,96795.53
2022-11-24T21:40:29.585Z,96794.97
2022-11-24T21:42:55.827Z,96808.53
2022-11-24T21:45:22.091Z,96806.56
2022-11-24T21:47:48.367Z,96803.66
2022-11-24T21:50:14.843Z,96798.31
2022-11-24T21:52:41.220Z,96809.22
2022-11-24T21:55:07.467Z,96819.06
2022-11-24T21:57:33.703Z,96824.84
2022-11-24T21:59:59.945Z,96831.69
2022-11-24T22:02:26.245Z,96824.28
2022-11-24T22:04:52.517Z,96831.31
2022-11-24T22:07:18.852Z,96829.13
2022-11-24T22:09:45.157Z,96834.56
2022-11-24T22:12:11.417Z,96832.84
2022-11-24T22:14:40.551Z,96829.72
2022-11-24T22:17:07.023Z,96838.28
2022-11-24T22:19:33.277Z,96827.41
2022-11-24T22:21:59.610Z,96835.97
2022-11-24T22:24:27.343Z,96833.31
2022-11-24T22:26:53.770Z,96833.06
2022-11-24T22:29:20.022Z,96843.50
2022-11-24T22:31:46.352Z,96841.88
2022-11-24T22:34:12.641Z,96854.38
2022-11-24T22:36:38.880Z,96849.41
2022-11-24T22:39:05.149Z,96847.31
2022-11-24T22:41:31.413Z,96852.06
2022-11-24T22:43:57.684Z,96852.66
2022-11-24T22:46:23.932Z,96860.63
2022-11-24T22:48:50.232Z,96868.75
2022-11-24T22:51:16.592Z,96877.31
2022-11-24T22:53:42.833Z,96873.63
2022-11-24T22:56:09.059Z,96869.91
2022-11-24T22:58:35.292Z,96878.13
2022-11-24T23:01:01.540Z,96878.13
2022-11-24T23:03:27.912Z,96874.66
2022-11-24T23:05:54.270Z,96879.19
2022-11-24T23:08:20.506Z,96868.97
2022-11-24T23:10:46.739Z,96865.63
2022-11-24T23:13:12.982Z,96872.00
2022-11-24T23:15:39.296Z,96866.66
2022-11-24T23:18:05.522Z,96865.84
2022-11-24T23:20:31.759Z,96864.81
2022-11-24T23:22:58.122Z,96853.22
2022-11-24T23:25:24.381Z,96856.72
2022-11-24T23:27:50.681Z,96849.28
2022-11-24T23:30:17.057Z,96836.94
2022-11-24T23:32:43.315Z,96838.63
2022-11-24T23:35:13.636Z,96834.34
2022-11-24T23:38:06.023Z,96835.97
2022-11-24T23:40:26.545Z,96853.81
2022-11-24T23:42:52.808Z,96864.47
2022-11-24T23:45:19.067Z,96877.22
2022-11-24T23:47:45.310Z,96881.72
2022-11-24T23:50:11.566Z,96877.22
2022-11-24T23:52:37.798Z,96881.50
2022-11-24T23:55:04.049Z,96890.75
2022-11-24T23:57:30.312Z,96880.00
2022-11-24T23:59:56.559Z,96884.97
